Time;durP1;ratioP1;P1;durP2;ratioP2;P2;SDS_P1;SDS_P2;PMS_P1;PMS_P2;Temp;Humidity;BMP_temperature;BMP_pressure;BME280_temperature;BME280_humidity;BME280_pressure;Samples;Min_cycle;Max_cycle;Signal;HPM_P1;HPM_P2
2023/01/09 00:01:24;;;;;;;1.17;1.17;;;;;;;8.28;nan;99568.59;6252711;28;20239;-74
2023/01/09 00:04:45;;;;;;;10.63;2.00;;;;;;;8.28;nan;99565.09;6261612;28;20587;-74
2023/01/09 00:08:09;;;;;;;0.97;0.83;;;;;;;8.20;nan;99555.06;6253014;28;20258;-73
2023/01/09 00:11:29;;;;;;;1.43;1.20;;;;;;;8.21;nan;99547.88;6255556;28;20234;-75
2023/01/09 00:14:52;;;;;;;1.03;0.93;;;;;;;8.11;nan;99547.09;6259590;28;20239;-75
2023/01/09 00:18:13;;;;;;;1.80;1.10;;;;;;;8.06;nan;99544.88;6250289;28;20231;-75
2023/01/09 00:21:34;;;;;;;1.20;1.10;;;;;;;7.92;nan;99545.41;6260431;28;20238;-75
2023/01/09 00:24:55;;;;;;;1.10;1.00;;;;;;;8.23;nan;99532.44;6264247;28;20482;-74
2023/01/09 00:28:16;;;;;;;1.30;1.20;;;;;;;8.00;nan;99530.25;6258773;28;20264;-74
2023/01/09 00:31:38;;;;;;;1.03;1.03;;;;;;;8.05;nan;99524.41;6262533;28;20234;-74
2023/01/09 00:34:59;;;;;;;2.47;2.37;;;;;;;7.91;nan;99523.09;6271718;28;20246;-74
2023/01/09 00:38:20;;;;;;;1.00;0.90;;;;;;;8.08;nan;99529.47;6253683;28;20572;-74
2023/01/09 00:41:44;;;;;;;1.77;1.63;;;;;;;7.99;nan;99531.22;6259740;28;20250;-74
2023/01/09 00:45:11;;;;;;;0.97;0.70;;;;;;;8.01;nan;99531.91;6262841;28;20255;-74
2023/01/09 00:48:35;;;;;;;0.97;0.97;;;;;;;7.88;nan;99527.94;6255530;28;20223;-73
2023/01/09 00:51:56;;;;;;;1.60;1.33;;;;;;;7.90;nan;99526.78;6265218;28;20234;-74
2023/01/09 00:55:17;;;;;;;1.07;0.93;;;;;;;7.89;nan;99516.19;6271131;28;20231;-74
2023/01/09 00:58:38;;;;;;;1.47;1.37;;;;;;;7.79;nan;99523.47;6262220;28;21934;-75
2023/01/09 01:01:59;;;;;;;1.53;1.43;;;;;;;8.04;nan;99518.19;6265665;28;20235;-74
2023/01/09 01:08:59;;;;;;;1.17;1.17;;;;;;;7.89;nan;99514.34;6263669;28;20227;-74
2023/01/09 01:12:20;;;;;;;1.30;1.20;;;;;;;7.99;nan;99517.81;6261871;28;20632;-73
2023/01/09 01:15:43;;;;;;;1.07;0.97;;;;;;;7.99;nan;99508.91;6272217;28;20230;-73
2023/01/09 01:19:04;;;;;;;1.03;1.00;;;;;;;7.83;nan;99506.06;6263066;28;20227;-73
2023/01/09 01:22:26;;;;;;;1.03;0.93;;;;;;;8.17;nan;99508.91;6265387;28;20234;-73
2023/01/09 01:25:48;;;;;;;0.80;0.80;;;;;;;7.78;nan;99506.53;6277982;28;20231;-73
2023/01/09 01:29:08;;;;;;;1.03;1.03;;;;;;;7.70;nan;99502.91;6265517;28;20243;-73
2023/01/09 01:32:29;;;;;;;1.13;1.10;;;;;;;7.81;nan;99506.22;6263624;28;20644;-73
2023/01/09 01:35:50;;;;;;;1.00;1.00;;;;;;;7.96;nan;99502.03;6274459;28;20223;-73
2023/01/09 01:39:12;;;;;;;1.80;1.40;;;;;;;7.97;nan;99502.84;6260892;28;20231;-74
2023/01/09 01:42:34;;;;;;;1.50;1.40;;;;;;;7.97;nan;99500.16;6269013;28;20898;-74
2023/01/09 01:45:55;;;;;;;0.80;0.80;;;;;;;7.75;nan;99488.06;6279699;28;20624;-73
2023/01/09 01:49:19;;;;;;;1.30;1.20;;;;;;;8.19;nan;99477.38;6257467;28;20275;-74
2023/01/09 01:52:40;;;;;;;1.10;1.10;;;;;;;8.10;nan;99484.53;6260237;28;20239;-74
2023/01/09 01:56:09;;;;;;;0.83;0.83;;;;;;;8.16;nan;99481.22;6270698;28;20453;-74
2023/01/09 01:59:34;;;;;;;1.40;1.30;;;;;;;8.14;nan;99474.31;6235150;28;20223;-74
2023/01/09 02:02:56;;;;;;;1.10;1.00;;;;;;;8.42;nan;99468.72;6264562;28;21634;-74
2023/01/09 02:06:16;;;;;;;1.30;1.17;;;;;;;8.60;nan;99463.28;6271271;28;20602;-73
2023/01/09 02:09:39;;;;;;;2.00;0.90;;;;;;;8.89;nan;99454.91;6265911;28;20235;-74
2023/01/09 02:13:03;;;;;;;1.40;1.30;;;;;;;8.62;nan;99462.13;6256167;28;20236;-74
2023/01/09 02:16:38;;;;;;;1.63;0.90;;;;;;;8.85;nan;99465.97;6271573;28;20227;-74
2023/01/09 02:20:31;;;;;;;2.30;2.10;;;;;;;8.72;nan;99454.78;6276552;28;20234;-74
2023/01/09 02:24:09;;;;;;;1.43;1.10;;;;;;;8.59;nan;99446.34;6263661;28;20231;-73
2023/01/09 02:28:21;;;;;;;4.17;1.43;;;;;;;8.72;nan;99446.75;6252496;28;20506;-75
2023/01/09 02:31:52;;;;;;;1.20;1.17;;;;;;;9.04;nan;99434.47;6236851;28;20255;-74
2023/01/09 02:35:43;;;;;;;0.90;0.90;;;;;;;8.85;nan;99439.09;6270919;28;20533;-74
2023/01/09 02:39:21;;;;;;;1.60;1.50;;;;;;;8.90;nan;99430.56;6239905;28;20260;-73
2023/01/09 02:42:44;;;;;;;2.07;1.60;;;;;;;8.80;nan;99427.16;6225051;28;20624;-74
2023/01/09 02:46:05;;;;;;;1.27;1.00;;;;;;;8.86;nan;99421.13;6263429;28;20235;-74
2023/01/09 02:49:28;;;;;;;1.10;1.10;;;;;;;8.75;nan;99433.00;6237011;28;20227;-73
2023/01/09 02:53:13;;;;;;;1.90;1.20;;;;;;;8.59;nan;99432.91;6532770;22;20210;-74
2023/01/09 02:56:49;;;;;;;1.17;1.17;;;;;;;8.72;nan;99429.75;6181852;28;21483;-74
2023/01/09 03:00:24;;;;;;;6.23;1.13;;;;;;;8.65;nan;99429.59;6208974;28;20229;-74
2023/01/09 03:03:49;;;;;;;1.80;1.23;;;;;;;8.72;nan;99421.72;6201424;28;20622;-75
2023/01/09 03:07:21;;;;;;;1.40;1.30;;;;;;;8.82;nan;99419.78;6190135;28;20641;-74
2023/01/09 03:10:48;;;;;;;1.30;1.20;;;;;;;8.94;nan;99429.22;6195475;28;20237;-74
2023/01/09 03:14:13;;;;;;;2.27;1.00;;;;;;;8.42;nan;99419.53;6209254;28;20234;-74
2023/01/09 03:17:38;;;;;;;1.50;1.10;;;;;;;8.81;nan;99415.38;6181154;28;20323;-74
2023/01/09 03:20:58;;;;;;;1.77;1.27;;;;;;;8.96;nan;99416.47;6192093;28;20284;-74
2023/01/09 03:24:20;;;;;;;4.70;2.40;;;;;;;8.81;nan;99423.44;6187924;28;20253;-73
2023/01/09 03:27:41;;;;;;;1.37;1.27;;;;;;;8.69;nan;99411.31;6196468;28;20232;-73
2023/01/09 03:31:02;;;;;;;2.00;1.50;;;;;;;8.79;nan;99410.19;6185719;28;20229;-73
2023/01/09 03:34:23;;;;;;;1.97;1.03;;;;;;;8.63;nan;99417.31;6194238;28;20246;-74
2023/01/09 03:37:43;;;;;;;0.97;0.90;;;;;;;8.69;nan;99424.72;6182812;28;20621;-74
2023/01/09 03:41:06;;;;;;;1.03;0.93;;;;;;;8.49;nan;99412.53;6197873;28;20237;-74
2023/01/09 03:44:27;;;;;;;3.03;0.97;;;;;;;8.30;nan;99415.44;6183048;28;20239;-73
2023/01/09 03:47:48;;;;;;;0.90;0.90;;;;;;;8.63;nan;99411.94;6187301;28;20244;-73
2023/01/09 03:51:09;;;;;;;1.10;1.10;;;;;;;8.58;nan;99409.72;6187376;28;20537;-73
2023/01/09 03:54:29;;;;;;;1.33;1.23;;;;;;;8.69;nan;99409.47;6182591;28;20236;-74
2023/01/09 03:57:52;;;;;;;1.43;1.37;;;;;;;8.69;nan;99405.94;6191530;28;20577;-73
2023/01/09 04:01:13;;;;;;;1.17;1.00;;;;;;;8.88;nan;99405.69;6197005;28;20221;-74
2023/01/09 04:04:34;;;;;;;1.00;0.90;;;;;;;8.68;nan;99410.44;6194260;28;20225;-74
2023/01/09 04:07:55;;;;;;;1.63;1.53;;;;;;;8.88;nan;99403.00;6192946;28;20305;-73
2023/01/09 04:11:17;;;;;;;3.43;1.30;;;;;;;8.70;nan;99397.69;6194800;28;20229;-73
2023/01/09 04:14:38;;;;;;;1.10;1.00;;;;;;;8.92;nan;99388.22;6202238;28;20241;-74
2023/01/09 04:17:59;;;;;;;0.97;0.97;;;;;;;9.18;nan;99396.22;6192229;28;20780;-74
2023/01/09 04:21:20;;;;;;;1.03;1.00;;;;;;;8.60;nan;99398.81;6191473;28;21373;-73
2023/01/09 04:24:41;;;;;;;1.27;1.17;;;;;;;8.86;nan;99388.88;6199314;28;20233;-73
2023/01/09 04:28:03;;;;;;;1.40;1.23;;;;;;;8.82;nan;99377.59;6214811;28;20803;-74
2023/01/09 04:31:25;;;;;;;2.20;1.33;;;;;;;8.85;nan;99387.19;6219202;28;20229;-74
2023/01/09 04:34:46;;;;;;;0.80;0.80;;;;;;;9.22;nan;99390.34;6219296;28;20248;-74
2023/01/09 04:38:07;;;;;;;3.20;2.30;;;;;;;8.81;nan;99384.00;6208149;28;20269;-74
2023/01/09 04:45:08;;;;;;;3.10;2.10;;;;;;;8.93;nan;99376.47;6204710;28;20351;-74
2023/01/09 04:48:30;;;;;;;1.33;1.10;;;;;;;9.14;nan;99379.56;6191169;28;20236;-74
2023/01/09 04:51:52;;;;;;;8.00;7.10;;;;;;;9.21;nan;99382.44;6186737;28;20236;-74
2023/01/09 04:55:13;;;;;;;1.20;1.20;;;;;;;8.90;nan;99384.03;6217647;28;20241;-74
2023/01/09 04:58:33;;;;;;;1.33;1.27;;;;;;;9.11;nan;99385.28;6209523;28;20239;-74
2023/01/09 05:01:56;;;;;;;2.30;1.50;;;;;;;9.19;nan;99387.13;6181484;28;20330;-73
2023/01/09 05:05:18;;;;;;;1.30;1.20;;;;;;;8.95;nan;99382.50;6203853;28;21801;-73
2023/01/09 05:08:40;;;;;;;1.00;1.00;;;;;;;8.78;nan;99370.88;6210994;28;21649;-73
2023/01/09 05:12:00;;;;;;;1.03;0.97;;;;;;;9.14;nan;99376.88;6184497;28;20239;-74
2023/01/09 05:15:21;;;;;;;2.13;1.40;;;;;;;8.90;nan;99375.97;6205035;28;20245;-74
2023/01/09 05:18:42;;;;;;;0.87;0.87;;;;;;;8.89;nan;99382.34;6214477;28;20445;-74
2023/01/09 05:22:04;;;;;;;1.07;1.07;;;;;;;9.04;nan;99381.56;6205033;28;21186;-73
2023/01/09 05:25:25;;;;;;;1.00;1.00;;;;;;;9.13;nan;99377.91;6198385;28;20276;-73
2023/01/09 05:28:45;;;;;;;1.07;1.07;;;;;;;8.75;nan;99373.03;6197512;28;20240;-73
2023/01/09 05:32:06;;;;;;;0.90;0.90;;;;;;;8.51;nan;99386.38;6194287;28;20233;-73
2023/01/09 05:35:27;;;;;;;1.03;0.83;;;;;;;8.83;nan;99378.44;6204813;28;20572;-75
2023/01/09 05:38:49;;;;;;;1.20;1.20;;;;;;;8.93;nan;99376.47;6204227;28;20237;-73
2023/01/09 05:42:10;;;;;;;3.23;1.37;;;;;;;8.78;nan;99384.31;6187968;28;20240;-73
2023/01/09 05:45:31;;;;;;;1.40;1.33;;;;;;;8.80;nan;99381.47;6221477;28;20241;-74
2023/01/09 05:48:52;;;;;;;0.90;0.90;;;;;;;8.59;nan;99379.19;6210210;28;20238;-73
2023/01/09 05:52:12;;;;;;;1.43;1.23;;;;;;;8.65;nan;99385.75;6203254;28;20242;-74
2023/01/09 05:55:35;;;;;;;0.87;0.87;;;;;;;8.93;nan;99378.34;6205896;28;20265;-73
2023/01/09 05:58:56;;;;;;;3.33;1.10;;;;;;;8.88;nan;99380.66;6221893;28;20237;-73
2023/01/09 06:02:17;;;;;;;1.07;1.07;;;;;;;8.79;nan;99374.41;6189038;28;20236;-72
2023/01/09 06:05:38;;;;;;;1.40;1.30;;;;;;;8.56;nan;99375.97;6230258;28;20259;-73
2023/01/09 06:08:59;;;;;;;3.67;1.07;;;;;;;8.80;nan;99376.09;6229020;28;20229;-74
2023/01/09 06:12:22;;;;;;;1.07;0.97;;;;;;;8.74;nan;99382.13;6183399;28;20233;-73
2023/01/09 06:15:43;;;;;;;2.97;1.53;;;;;;;8.67;nan;99381.06;6190928;28;20260;-74
2023/01/09 06:19:04;;;;;;;1.00;1.00;;;;;;;8.64;nan;99381.38;6199118;28;20233;-73
2023/01/09 06:22:25;;;;;;;1.07;1.03;;;;;;;8.66;nan;99408.91;6189981;28;20224;-73
2023/01/09 06:25:46;;;;;;;1.13;0.90;;;;;;;8.75;nan;99406.13;6201093;28;20233;-74
2023/01/09 06:29:08;;;;;;;1.20;1.10;;;;;;;8.63;nan;99404.72;6201573;28;20236;-73
2023/01/09 06:32:29;;;;;;;1.07;1.07;;;;;;;8.59;nan;99407.91;6202889;28;20229;-73
2023/01/09 06:35:50;;;;;;;1.47;1.13;;;;;;;8.66;nan;99419.66;6216626;28;20247;-73
2023/01/09 06:39:12;;;;;;;1.07;1.03;;;;;;;8.94;nan;99415.78;6214569;28;20228;-75
2023/01/09 06:42:34;;;;;;;2.40;1.10;;;;;;;8.87;nan;99422.78;6210672;28;20240;-73
2023/01/09 06:45:56;;;;;;;1.20;1.10;;;;;;;8.87;nan;99425.47;6214442;28;20236;-74
2023/01/09 06:49:22;;;;;;;1.30;1.20;;;;;;;9.14;nan;99416.34;6206226;28;20236;-73
2023/01/09 06:52:42;;;;;;;1.70;1.60;;;;;;;8.86;nan;99421.94;6216367;28;20240;-74
2023/01/09 06:56:04;;;;;;;1.30;1.27;;;;;;;8.91;nan;99428.72;6221321;28;20236;-74
2023/01/09 06:59:25;;;;;;;1.83;1.50;;;;;;;8.89;nan;99430.72;6224370;28;20674;-73
2023/01/09 07:02:47;;;;;;;1.20;1.20;;;;;;;8.69;nan;99420.22;6211266;28;20228;-74
2023/01/09 07:06:08;;;;;;;1.47;1.37;;;;;;;8.77;nan;99428.31;6220060;28;20308;-73
2023/01/09 07:09:29;;;;;;;1.30;1.20;;;;;;;8.61;nan;99433.59;6213418;28;20233;-73
2023/01/09 07:12:50;;;;;;;1.30;1.17;;;;;;;8.70;nan;99434.47;6216259;28;20231;-74
2023/01/09 07:16:11;;;;;;;1.93;1.83;;;;;;;8.73;nan;99442.22;6205827;28;20232;-73
2023/01/09 07:19:33;;;;;;;1.13;1.13;;;;;;;8.74;nan;99458.16;6196206;28;20246;-73
2023/01/09 07:22:54;;;;;;;1.53;1.40;;;;;;;8.59;nan;99458.94;6195389;28;20233;-74
2023/01/09 07:26:15;;;;;;;1.70;1.53;;;;;;;8.66;nan;99465.34;6203954;28;20541;-72
2023/01/09 07:29:35;;;;;;;1.87;1.40;;;;;;;8.67;nan;99475.94;6191402;28;20233;-73
2023/01/09 07:32:56;;;;;;;2.10;1.90;;;;;;;8.82;nan;99478.88;6182761;28;20244;-72
2023/01/09 07:36:19;;;;;;;3.17;2.47;;;;;;;8.88;nan;99470.19;6190612;28;20341;-73
2023/01/09 07:39:39;;;;;;;2.10;1.40;;;;;;;8.91;nan;99491.34;6195648;28;20229;-73
2023/01/09 07:43:01;;;;;;;1.50;1.40;;;;;;;9.15;nan;99493.31;6182974;28;21811;-73
2023/01/09 07:46:21;;;;;;;2.90;2.30;;;;;;;9.21;nan;99500.75;6189786;28;20237;-73
2023/01/09 07:49:42;;;;;;;3.53;2.63;;;;;;;8.62;nan;99510.47;6205415;28;21760;-74
2023/01/09 07:53:04;;;;;;;1.47;1.37;;;;;;;8.73;nan;99512.06;6201411;28;20229;-74
2023/01/09 07:56:25;;;;;;;2.13;2.00;;;;;;;8.72;nan;99519.28;6205158;28;20245;-73
2023/01/09 07:59:46;;;;;;;3.27;3.00;;;;;;;8.61;nan;99526.75;6186493;28;20233;-73
2023/01/09 08:03:07;;;;;;;2.50;2.23;;;;;;;8.57;nan;99525.38;6191758;28;20228;-73
2023/01/09 08:06:28;;;;;;;2.57;2.37;;;;;;;8.61;nan;99529.44;6176898;28;20257;-73
2023/01/09 08:09:51;;;;;;;2.73;2.53;;;;;;;8.69;nan;99537.56;6193494;28;20516;-73
2023/01/09 08:13:12;;;;;;;2.53;1.87;;;;;;;8.41;nan;99544.03;6198044;28;20228;-73
2023/01/09 08:16:33;;;;;;;4.63;3.17;;;;;;;8.66;nan;99537.88;6168527;28;20546;-73
2023/01/09 08:19:54;;;;;;;3.17;2.50;;;;;;;8.63;nan;99538.19;6206183;28;20242;-72
2023/01/09 08:23:14;;;;;;;2.97;2.40;;;;;;;8.52;nan;99547.34;6193384;28;20260;-73
2023/01/09 08:26:37;;;;;;;3.20;2.90;;;;;;;8.54;nan;99550.72;6185099;28;20260;-73
2023/01/09 08:29:58;;;;;;;2.63;2.10;;;;;;;8.73;nan;99547.84;6207837;28;20245;-73
2023/01/09 08:33:19;;;;;;;5.47;2.60;;;;;;;9.15;nan;99555.16;6191940;28;20248;-75
2023/01/09 08:36:40;;;;;;;4.33;3.93;;;;;;;8.99;nan;99560.44;6185006;28;20233;-75
2023/01/09 08:40:01;;;;;;;2.67;2.40;;;;;;;8.84;nan;99574.44;6203557;28;20230;-76
2023/01/09 08:47:08;;;;;;;3.13;2.87;;;;;;;8.61;nan;99564.38;6185426;28;20313;-75
2023/01/09 08:50:29;;;;;;;4.17;3.77;;;;;;;9.04;nan;99561.66;6193066;28;20410;-76
2023/01/09 08:53:52;;;;;;;3.20;2.80;;;;;;;9.44;nan;99564.56;6188523;28;20625;-76
2023/01/09 08:57:16;;;;;;;4.03;3.63;;;;;;;8.94;nan;99573.50;6182137;28;20228;-75
2023/01/09 09:00:38;;;;;;;4.43;2.60;;;;;;;10.73;nan;99569.38;6185750;28;20230;-75
2023/01/09 09:04:00;;;;;;;5.83;4.33;;;;;;;10.35;nan;99581.66;6198302;28;20237;-76
2023/01/09 09:07:25;;;;;;;6.43;2.97;;;;;;;10.76;nan;99582.53;6192751;28;20241;-76
2023/01/09 09:10:46;;;;;;;4.33;2.57;;;;;;;11.08;nan;99591.44;6186454;28;20651;-76
2023/01/09 09:17:44;;;;;;;8.97;2.43;;;;;;;11.82;nan;99592.94;6180838;28;20233;-76
2023/01/09 09:21:05;;;;;;;5.57;2.93;;;;;;;12.00;nan;99615.13;6196276;28;20237;-76
2023/01/09 09:24:26;;;;;;;3.40;2.77;;;;;;;11.42;nan;99609.22;6207955;28;20240;-75
2023/01/09 09:27:46;;;;;;;3.00;2.70;;;;;;;9.90;nan;99608.13;6208558;28;20241;-75
2023/01/09 09:31:07;;;;;;;4.40;2.73;;;;;;;9.03;nan;99620.94;6204241;28;20229;-75
2023/01/09 09:34:30;;;;;;;3.17;2.30;;;;;;;9.26;nan;99628.31;6191080;28;20233;-75
2023/01/09 09:37:55;;;;;;;3.53;2.37;;;;;;;8.50;nan;99637.97;6217145;28;20782;-77
2023/01/09 09:45:26;;;;;;;3.03;2.77;;;;;;;8.34;nan;99637.81;6203834;28;20601;-75
2023/01/09 09:48:51;;;;;;;4.27;3.07;;;;;;;8.12;nan;99640.03;6209391;28;20323;-75
2023/01/09 09:52:32;;;;;;;2.90;2.37;;;;;;;8.24;nan;99639.66;6192989;28;20236;-75
2023/01/09 09:55:53;;;;;;;7.27;4.07;;;;;;;8.26;nan;99644.94;6224952;28;20467;-78
2023/01/09 09:59:18;;;;;;;2.77;2.57;;;;;;;8.18;nan;99650.19;6198480;28;20237;-75
2023/01/09 10:02:45;;;;;;;2.80;2.47;;;;;;;8.07;nan;99652.06;6198200;28;20336;-75
2023/01/09 10:06:12;;;;;;;3.30;2.80;;;;;;;8.01;nan;99673.28;6191499;28;20240;-75
2023/01/09 10:09:45;;;;;;;3.37;2.33;;;;;;;7.96;nan;99657.66;6219865;28;20229;-75
2023/01/09 10:16:57;;;;;;;2.60;2.40;;;;;;;8.36;nan;99653.75;6210850;28;20233;-75
2023/01/09 10:20:43;;;;;;;11.27;3.83;;;;;;;7.90;nan;99652.91;6212250;28;20236;-76
2023/01/09 10:24:33;;;;;;;5.13;2.87;;;;;;;7.79;nan;99666.50;6207553;28;20237;-76
2023/01/09 10:28:16;;;;;;;2.73;2.10;;;;;;;8.32;nan;99666.66;6219399;28;20495;-76
2023/01/09 10:31:49;;;;;;;4.10;3.03;;;;;;;8.17;nan;99664.59;6212497;28;20232;-74
2023/01/09 10:35:29;;;;;;;3.00;2.80;;;;;;;8.05;nan;99669.34;6216059;28;20236;-76
2023/01/09 10:38:54;;;;;;;3.90;2.57;;;;;;;7.91;nan;99681.41;6195703;28;20575;-75
2023/01/09 10:42:22;;;;;;;4.53;2.80;;;;;;;8.22;nan;99671.19;6184874;28;20808;-74
2023/01/09 10:45:51;;;;;;;3.67;2.63;;;;;;;8.00;nan;99675.16;6192631;28;20220;-75
2023/01/09 10:49:16;;;;;;;3.43;2.97;;;;;;;7.88;nan;99679.03;6201064;28;20233;-77
2023/01/09 10:52:41;;;;;;;4.47;2.87;;;;;;;8.29;nan;99680.38;6196089;28;20225;-76
2023/01/09 10:56:11;;;;;;;3.07;2.50;;;;;;;8.16;nan;99682.53;6199655;28;20233;-75
2023/01/09 10:59:32;;;;;;;4.23;2.50;;;;;;;8.07;nan;99684.28;6199648;28;20316;-76
2023/01/09 11:02:54;;;;;;;3.33;3.03;;;;;;;8.15;nan;99690.75;6196377;28;20629;-74
2023/01/09 11:06:20;;;;;;;7.50;2.37;;;;;;;8.61;nan;99688.78;6192367;28;20501;-76
2023/01/09 11:09:58;;;;;;;5.40;3.07;;;;;;;8.17;nan;99686.91;6202399;28;20518;-74
2023/01/09 11:13:21;;;;;;;4.27;3.70;;;;;;;8.21;nan;99677.56;6219888;28;20235;-74
2023/01/09 11:16:53;;;;;;;3.60;2.60;;;;;;;11.15;nan;99654.47;6186152;28;20327;-74
2023/01/09 11:20:17;;;;;;;4.50;2.37;;;;;;;13.55;nan;99652.50;6192412;28;20233;-74
2023/01/09 11:23:38;;;;;;;4.73;2.50;;;;;;;11.50;nan;99663.19;6198360;28;20735;-75
2023/01/09 11:27:23;;;;;;;3.03;1.83;;;;;;;9.63;nan;99669.25;6198707;28;20256;-75
2023/01/09 11:30:53;;;;;;;6.47;3.10;;;;;;;9.38;nan;99671.94;6205856;28;20866;-74
2023/01/09 11:34:17;;;;;;;2.90;1.50;;;;;;;11.85;nan;99660.06;6211142;28;20667;-75
2023/01/09 11:37:39;;;;;;;7.53;1.63;;;;;;;14.29;nan;99660.44;6205639;28;20233;-75
2023/01/09 11:41:05;;;;;;;3.83;1.97;;;;;;;14.06;nan;99658.88;6204292;28;20565;-75
2023/01/09 11:44:28;;;;;;;3.47;2.33;;;;;;;11.20;nan;99668.28;6203965;28;20252;-74
2023/01/09 11:47:49;;;;;;;3.90;1.77;;;;;;;10.41;nan;99677.97;6201272;28;20236;-75
2023/01/09 11:51:20;;;;;;;3.50;1.67;;;;;;;9.71;nan;99673.81;6206291;28;20229;-75
2023/01/09 11:54:48;;;;;;;4.30;3.20;;;;;;;10.08;nan;99685.09;6194806;28;20312;-74
2023/01/09 11:58:15;;;;;;;3.47;2.20;;;;;;;10.09;nan;99678.72;6197457;28;20260;-75
2023/01/09 12:01:58;;;;;;;8.40;3.10;;;;;;;10.28;nan;99686.53;6183795;28;20234;-75
2023/01/09 12:05:30;;;;;;;4.10;1.83;;;;;;;10.06;nan;99687.09;6208606;28;20229;-74
2023/01/09 12:08:56;;;;;;;2.63;2.30;;;;;;;8.99;nan;99690.28;6228795;28;20236;-76
2023/01/09 12:12:30;;;;;;;5.77;2.27;;;;;;;9.36;nan;99693.63;6222899;28;20787;-75
2023/01/09 12:15:58;;;;;;;3.20;2.40;;;;;;;9.29;nan;99691.69;6212804;28;20236;-75
2023/01/09 12:19:38;;;;;;;2.07;1.97;;;;;;;9.28;nan;99685.47;6201776;28;20892;-74
2023/01/09 12:23:13;;;;;;;3.40;2.83;;;;;;;9.30;nan;99688.03;6208925;28;20286;-74
2023/01/09 12:26:45;;;;;;;4.60;1.73;;;;;;;9.33;nan;99683.16;6209192;28;20331;-74
2023/01/09 12:30:49;;;;;;;2.90;2.00;;;;;;;9.04;nan;99700.56;6226849;28;20360;-75
2023/01/09 12:34:28;;;;;;;2.20;2.00;;;;;;;9.04;nan;99701.41;6228211;28;20228;-75
2023/01/09 12:38:11;;;;;;;3.27;3.00;;;;;;;8.97;nan;99697.66;6209588;28;20235;-75
2023/01/09 12:42:04;;;;;;;11.73;3.53;;;;;;;9.20;nan;99700.72;6216302;28;20468;-76
2023/01/09 12:45:39;;;;;;;5.27;2.17;;;;;;;9.04;nan;99703.25;6231313;28;20255;-76
2023/01/09 12:49:25;;;;;;;2.77;2.53;;;;;;;9.11;nan;99698.97;6232255;28;20229;-75
2023/01/09 12:52:54;;;;;;;3.20;2.90;;;;;;;9.34;nan;99697.47;6222135;28;20247;-76
2023/01/09 12:56:19;;;;;;;2.77;2.50;;;;;;;9.26;nan;99706.28;6208007;28;20239;-75
2023/01/09 12:59:43;;;;;;;5.10;2.87;;;;;;;9.01;nan;99696.34;6213001;28;20252;-74
2023/01/09 13:03:13;;;;;;;3.70;2.20;;;;;;;9.18;nan;99700.84;6192614;28;20602;-74
2023/01/09 13:06:42;;;;;;;3.00;2.70;;;;;;;9.34;nan;99692.94;6193036;28;20954;-74
2023/01/09 13:10:09;;;;;;;2.63;2.43;;;;;;;9.00;nan;99694.66;6234163;28;20224;-75
2023/01/09 13:13:36;;;;;;;3.33;2.77;;;;;;;9.26;nan;99692.84;6225762;28;21101;-75
2023/01/09 13:16:59;;;;;;;2.80;2.60;;;;;;;9.77;nan;99683.94;6181280;28;20260;-76
2023/01/09 13:20:25;;;;;;;8.00;4.57;;;;;;;9.40;nan;99697.69;6209248;28;20635;-75
2023/01/09 13:23:53;;;;;;;4.87;3.20;;;;;;;9.18;nan;99700.03;6201515;28;20612;-75
2023/01/09 13:27:19;;;;;;;2.93;2.60;;;;;;;9.62;nan;99696.28;6215169;28;20230;-75
2023/01/09 13:31:08;;;;;;;4.13;3.43;;;;;;;9.75;nan;99694.00;6221530;28;20217;-75
2023/01/09 13:34:33;;;;;;;2.60;2.40;;;;;;;9.43;nan;99701.88;6204447;28;21091;-75
2023/01/09 13:37:54;;;;;;;10.80;3.90;;;;;;;9.58;nan;99711.06;6201577;28;20232;-75
2023/01/09 13:45:10;;;;;;;2.90;2.50;;;;;;;9.68;nan;99709.09;6220099;28;21526;-75
2023/01/09 13:48:40;;;;;;;4.87;2.73;;;;;;;9.77;nan;99708.16;6220218;28;20227;-74
2023/01/09 13:52:04;;;;;;;3.47;2.67;;;;;;;10.06;nan;99708.63;6209784;28;20605;-75
2023/01/09 13:55:28;;;;;;;2.93;2.47;;;;;;;9.76;nan;99713.72;6220047;28;21838;-74
2023/01/09 13:59:02;;;;;;;7.13;3.57;;;;;;;9.75;nan;99720.94;6223808;28;20224;-74
2023/01/09 14:02:55;;;;;;;4.50;2.93;;;;;;;9.62;nan;99721.34;6209691;28;20560;-75
2023/01/09 14:06:18;;;;;;;5.63;2.63;;;;;;;9.85;nan;99727.03;6225109;28;20264;-75
2023/01/09 14:09:47;;;;;;;6.53;3.90;;;;;;;9.75;nan;99725.47;6191922;28;20236;-74
2023/01/09 14:13:16;;;;;;;7.73;2.50;;;;;;;9.98;nan;99726.59;6193562;28;20252;-76
2023/01/09 14:16:39;;;;;;;4.53;2.90;;;;;;;10.00;nan;99744.28;6200405;28;20240;-75
2023/01/09 14:20:03;;;;;;;2.90;2.47;;;;;;;10.01;nan;99747.84;6200178;28;20233;-75
2023/01/09 14:23:26;;;;;;;7.53;3.40;;;;;;;9.53;nan;99756.44;6209170;28;20515;-74
2023/01/09 14:26:49;;;;;;;4.53;3.33;;;;;;;9.65;nan;99764.09;6193031;28;20237;-74
2023/01/09 14:30:28;;;;;;;5.30;2.87;;;;;;;8.95;nan;99771.41;6218397;28;20728;-73
2023/01/09 14:33:50;;;;;;;3.13;2.93;;;;;;;9.13;nan;99761.47;6221858;28;20220;-75
2023/01/09 14:37:13;;;;;;;3.17;2.50;;;;;;;8.87;nan;99766.75;6213159;28;20240;-75
2023/01/09 14:40:37;;;;;;;4.37;2.70;;;;;;;8.77;nan;99772.22;6200299;28;20599;-74
2023/01/09 14:44:01;;;;;;;3.30;3.00;;;;;;;9.09;nan;99777.09;6200054;28;20243;-74
2023/01/09 14:47:32;;;;;;;3.23;2.90;;;;;;;9.13;nan;99785.69;6212061;28;20224;-74
2023/01/09 14:50:56;;;;;;;5.60;2.60;;;;;;;8.97;nan;99786.34;6203855;28;20236;-74
2023/01/09 14:54:27;;;;;;;7.33;2.47;;;;;;;9.36;nan;99794.97;6225484;28;20233;-73
2023/01/09 14:57:51;;;;;;;4.63;3.70;;;;;;;9.20;nan;99795.66;6223632;28;20236;-75
2023/01/09 15:01:17;;;;;;;4.97;3.97;;;;;;;9.47;nan;99800.13;6208521;28;21016;-73
2023/01/09 15:04:42;;;;;;;4.87;2.83;;;;;;;9.65;nan;99806.31;6208040;28;20257;-74
2023/01/09 15:08:05;;;;;;;3.20;2.47;;;;;;;9.53;nan;99811.06;6217705;28;20232;-74
2023/01/09 15:11:27;;;;;;;4.37;2.50;;;;;;;9.76;nan;99811.44;6222674;28;20337;-75
2023/01/09 15:14:52;;;;;;;5.13;3.20;;;;;;;10.20;nan;99815.78;6208917;28;20233;-74
2023/01/09 15:18:21;;;;;;;3.63;2.27;;;;;;;10.33;nan;99809.97;6212235;28;20237;-75
2023/01/09 15:21:56;;;;;;;4.10;2.87;;;;;;;10.48;nan;99807.50;6183249;28;20281;-75
2023/01/09 15:25:27;;;;;;;4.87;2.60;;;;;;;10.53;nan;99822.19;6212598;28;20657;-75
2023/01/09 15:28:48;;;;;;;5.33;3.10;;;;;;;10.51;nan;99816.13;6191066;28;20228;-75
2023/01/09 15:32:15;;;;;;;3.00;2.23;;;;;;;10.36;nan;99810.50;6186917;28;20225;-75
2023/01/09 15:35:40;;;;;;;3.70;2.40;;;;;;;10.44;nan;99818.63;6202869;28;20240;-75
2023/01/09 15:39:01;;;;;;;3.30;3.00;;;;;;;10.53;nan;99811.41;6203359;28;20236;-75
2023/01/09 15:46:05;;;;;;;2.50;2.33;;;;;;;10.21;nan;99816.63;6207776;28;20232;-76
2023/01/09 15:49:26;;;;;;;2.60;2.40;;;;;;;10.18;nan;99828.56;6205749;28;20236;-74
2023/01/09 15:52:47;;;;;;;5.93;2.73;;;;;;;10.32;nan;99827.13;6204894;28;21235;-75
2023/01/09 15:56:18;;;;;;;5.17;2.77;;;;;;;9.58;nan;99832.13;6204844;28;20243;-74
2023/01/09 15:59:40;;;;;;;3.10;2.80;;;;;;;9.55;nan;99841.34;6188636;28;20339;-75
2023/01/09 16:03:10;;;;;;;2.90;2.30;;;;;;;9.53;nan;99843.34;6205841;28;20256;-75
2023/01/09 16:06:34;;;;;;;5.27;4.07;;;;;;;9.74;nan;99853.81;6208216;28;20231;-74
2023/01/09 16:09:55;;;;;;;3.90;2.20;;;;;;;10.09;nan;99855.56;6204835;28;20235;-75
2023/01/09 16:13:16;;;;;;;6.23;3.43;;;;;;;9.80;nan;99866.66;6205450;28;20312;-74
2023/01/09 16:16:39;;;;;;;10.50;3.20;;;;;;;9.54;nan;99874.66;6213492;28;20657;-75
2023/01/09 16:20:14;;;;;;;3.87;3.33;;;;;;;9.38;nan;99882.56;6211723;28;20232;-75
2023/01/09 16:23:35;;;;;;;3.43;2.27;;;;;;;8.86;nan;99886.84;6214327;28;20826;-75
2023/01/09 16:27:25;;;;;;;6.47;2.13;;;;;;;8.92;nan;99893.47;6212039;28;20236;-76
2023/01/09 16:30:54;;;;;;;6.17;4.07;;;;;;;9.20;nan;99897.00;6198978;28;20232;-75
2023/01/09 16:34:17;;;;;;;2.77;2.57;;;;;;;9.24;nan;99898.41;6183893;28;20233;-74
2023/01/09 16:37:39;;;;;;;3.10;2.83;;;;;;;9.20;nan;99905.06;6186050;28;20236;-74
2023/01/09 16:44:37;;;;;;;1.63;1.50;;;;;;;8.82;nan;99912.31;6193214;28;20233;-74
2023/01/09 16:47:58;;;;;;;3.37;2.47;;;;;;;9.06;nan;99917.16;6190525;28;20236;-75
2023/01/09 16:51:22;;;;;;;2.40;1.30;;;;;;;9.09;nan;99914.19;6199582;28;20233;-74
2023/01/09 16:54:45;;;;;;;1.97;1.87;;;;;;;9.31;nan;99919.13;6188837;28;20327;-75
2023/01/09 16:58:08;;;;;;;1.50;1.40;;;;;;;9.00;nan;99915.09;6208271;28;20307;-74
2023/01/09 17:01:29;;;;;;;1.37;1.30;;;;;;;9.11;nan;99928.34;6214433;28;20224;-74
2023/01/09 17:04:50;;;;;;;4.40;1.80;;;;;;;9.21;nan;99936.31;6220869;28;20307;-74
2023/01/09 17:08:20;;;;;;;2.33;2.10;;;;;;;9.46;nan;99932.91;6216829;28;20609;-75
2023/01/09 17:11:42;;;;;;;5.97;2.60;;;;;;;9.22;nan;99938.03;6208559;28;20232;-73
2023/01/09 17:15:03;;;;;;;1.80;1.70;;;;;;;9.22;nan;99951.47;6197675;28;20304;-75